Watertown, Connecticut
Current Conditions -  °F | °C
As of 8:50 AM on Wednesday 26 Nov 2014 (Local Time) from KOXC Reporting Station
Light Snow Light Snow  
Wind Chill: 25°   Ceiling: 1500
Heat Index: 34°   Visibility: 1mi
Dew Point: 27°   Wind: 12mph
Humidity: 75%   Direction: 40°NE
Pressure: 30.12"   Gusts: 20mph
Location:  41.61°N, 73.12°W
Report Text: KOXC 261350Z 04010G17KT 1SM -SN BR SCT003 BKN015 OVC030 01/M03 A3012 RMK PRESFR
Loading
Personal Weather Stations






























Interactive Weather Map New forecast layout! Learn more

10-Day Weather Forecast

Advertisements
Track Severe Weather on mobile